Time;durP1;ratioP1;P1;durP2;ratioP2;P2;SDS_P1;SDS_P2;PMS_P1;PMS_P2;Temp;Humidity;BMP_temperature;BMP_pressure;BME280_temperature;BME280_humidity;BME280_pressure;Samples;Min_cycle;Max_cycle;Signal;HPM_P1;HPM_P2
2023/07/07 00:02:12;;;;;;;8.10;7.50;;;;;;;25.58;69.21;99174.31;4955945;29;20275;-70
2023/07/07 00:04:39;;;;;;;7.80;7.07;;;;;;;25.66;69.90;99176.34;4956037;29;20196;-69
2023/07/07 00:07:07;;;;;;;7.93;7.40;;;;;;;25.61;68.97;99174.53;4973963;28;20274;-70
2023/07/07 00:09:34;;;;;;;8.57;7.80;;;;;;;25.56;68.78;99180.06;4956817;28;20232;-69
2023/07/07 00:12:01;;;;;;;8.53;7.40;;;;;;;25.52;68.75;99172.81;4955614;29;20640;-69
2023/07/07 00:14:28;;;;;;;8.50;7.70;;;;;;;25.51;69.76;99172.00;4955784;29;20200;-71
2023/07/07 00:17:01;;;;;;;8.33;7.73;;;;;;;25.47;69.57;99175.63;4955522;29;20200;-69
2023/07/07 00:19:28;;;;;;;7.90;7.30;;;;;;;25.39;69.43;99168.16;4956008;29;20188;-69
2023/07/07 00:21:58;;;;;;;8.50;7.37;;;;;;;25.35;69.54;99167.16;4955310;29;20279;-69
2023/07/07 00:24:26;;;;;;;8.60;7.87;;;;;;;25.39;70.24;99179.03;4954792;29;20192;-69
2023/07/07 00:26:52;;;;;;;8.20;7.60;;;;;;;25.68;70.47;99179.56;4955848;29;20200;-69
2023/07/07 00:29:19;;;;;;;7.93;7.13;;;;;;;25.84;69.03;99180.88;4955678;29;20275;-69
2023/07/07 00:31:46;;;;;;;7.70;7.10;;;;;;;25.74;68.52;99186.53;4955467;29;20208;-69
2023/07/07 00:34:12;;;;;;;8.10;7.20;;;;;;;25.75;67.99;99177.25;4955282;29;20271;-69
2023/07/07 00:36:39;;;;;;;7.37;6.87;;;;;;;25.85;68.92;99174.34;4955417;29;20310;-69
2023/07/07 00:39:06;;;;;;;7.57;7.10;;;;;;;26.01;69.26;99183.84;4954517;29;20192;-70
2023/07/07 00:41:34;;;;;;;8.27;7.37;;;;;;;26.16;67.52;99191.66;4955350;29;20227;-69
2023/07/07 00:44:02;;;;;;;7.90;7.23;;;;;;;26.17;66.77;99182.41;4955090;29;20735;-69
2023/07/07 00:46:29;;;;;;;8.00;7.17;;;;;;;26.21;66.90;99186.91;4954800;29;20253;-70
2023/07/07 00:48:57;;;;;;;7.57;6.97;;;;;;;26.19;66.94;99194.59;4954291;29;20196;-70
2023/07/07 00:51:28;;;;;;;6.77;6.17;;;;;;;26.11;66.23;99197.22;4954907;29;20227;-70
2023/07/07 00:53:56;;;;;;;7.83;7.33;;;;;;;26.09;67.80;99188.56;4955224;29;20196;-70
2023/07/07 00:56:29;;;;;;;7.67;6.50;;;;;;;26.16;66.75;99188.94;4954564;28;20207;-70
2023/07/07 00:59:02;;;;;;;7.03;6.37;;;;;;;26.25;67.50;99208.94;4954756;29;20184;-70
2023/07/07 01:01:29;;;;;;;7.37;6.87;;;;;;;26.36;66.29;99202.13;4954724;29;20216;-70
2023/07/07 01:03:58;;;;;;;6.87;6.27;;;;;;;26.47;65.47;99201.63;4953816;29;20200;-70
2023/07/07 01:06:32;;;;;;;6.27;5.90;;;;;;;26.58;64.52;99207.69;4967492;28;20231;-70
2023/07/07 01:09:04;;;;;;;6.43;6.03;;;;;;;26.69;64.79;99200.88;4969624;28;20228;-70
2023/07/07 01:11:31;;;;;;;7.80;6.73;;;;;;;26.79;64.21;99203.38;4954468;29;20196;-70
2023/07/07 01:14:02;;;;;;;6.90;6.47;;;;;;;26.84;64.34;99195.06;4954461;29;20259;-69
2023/07/07 01:16:37;;;;;;;6.80;6.03;;;;;;;26.75;63.22;99186.03;4954546;29;20184;-70
2023/07/07 01:19:21;;;;;;;6.77;6.37;;;;;;;26.86;64.18;99198.31;4954229;29;20187;-70
2023/07/07 01:22:06;;;;;;;8.50;6.33;;;;;;;26.86;62.95;99201.81;4941790;29;20215;-69
2023/07/07 01:24:52;;;;;;;8.80;7.00;;;;;;;26.79;63.71;99197.91;4954802;29;20260;-69
2023/07/07 01:27:42;;;;;;;6.90;6.50;;;;;;;26.85;63.53;99200.22;4954286;29;20664;-69
2023/07/07 01:30:30;;;;;;;6.87;5.80;;;;;;;26.86;63.11;99203.75;4954743;29;20192;-69
2023/07/07 01:32:58;;;;;;;6.87;6.30;;;;;;;26.81;63.04;99206.56;4954197;29;20192;-70
2023/07/07 01:35:24;;;;;;;7.17;6.50;;;;;;;26.86;62.40;99206.47;4954471;29;20204;-70
2023/07/07 01:37:54;;;;;;;7.23;6.60;;;;;;;26.93;62.88;99204.09;4953788;29;20192;-69
2023/07/07 01:40:22;;;;;;;7.00;6.23;;;;;;;27.00;62.27;99204.50;4954470;29;20203;-72
2023/07/07 01:42:59;;;;;;;7.63;7.03;;;;;;;26.99;62.08;99195.50;4953956;29;20227;-71
2023/07/07 01:45:33;;;;;;;6.57;6.07;;;;;;;26.88;62.28;99199.59;4954344;29;20663;-71
2023/07/07 01:48:10;;;;;;;7.47;6.97;;;;;;;26.83;62.91;99188.00;4954311;29;20218;-69
2023/07/07 01:50:38;;;;;;;6.40;6.00;;;;;;;26.76;61.96;99190.34;4954387;29;20251;-69
2023/07/07 01:53:12;;;;;;;7.10;6.43;;;;;;;26.44;63.00;99185.06;4953349;29;20263;-69
2023/07/07 01:55:47;;;;;;;8.00;7.30;;;;;;;26.09;64.43;99181.19;4954118;29;20192;-70
2023/07/07 01:58:17;;;;;;;7.30;6.63;;;;;;;26.12;65.77;99187.94;4953882;29;20219;-69
2023/07/07 02:00:46;;;;;;;8.07;7.47;;;;;;;25.99;65.61;99188.75;4954449;29;20200;-70
2023/07/07 02:03:16;;;;;;;7.43;6.90;;;;;;;25.87;66.10;99185.72;4953994;29;20231;-69
2023/07/07 02:05:43;;;;;;;8.13;7.47;;;;;;;25.66;66.32;99181.78;4960865;28;20188;-69
2023/07/07 02:08:10;;;;;;;7.07;6.57;;;;;;;25.52;66.96;99183.69;4972343;28;20667;-69
2023/07/07 02:10:36;;;;;;;8.03;7.23;;;;;;;25.42;67.45;99172.97;4954296;28;20727;-69
2023/07/07 02:13:03;;;;;;;7.40;6.83;;;;;;;25.42;67.71;99181.13;4953993;29;20204;-69
2023/07/07 02:15:30;;;;;;;8.00;7.40;;;;;;;25.54;67.59;99181.47;4954046;29;20192;-69
2023/07/07 02:17:58;;;;;;;8.10;7.60;;;;;;;25.51;67.10;99173.94;4953089;29;20231;-69
2023/07/07 02:20:25;;;;;;;8.20;7.70;;;;;;;25.42;67.31;99173.78;4954172;29;20200;-70
2023/07/07 02:22:52;;;;;;;8.60;7.10;;;;;;;25.40;67.85;99173.31;4953836;29;20228;-70
2023/07/07 02:25:18;;;;;;;7.87;7.30;;;;;;;25.37;68.07;99170.38;4953703;29;20230;-71
2023/07/07 02:27:45;;;;;;;7.60;6.93;;;;;;;25.31;67.88;99175.06;4953826;29;20251;-71
2023/07/07 02:30:12;;;;;;;8.10;7.30;;;;;;;25.31;68.19;99177.81;4953574;29;20196;-70
2023/07/07 02:32:39;;;;;;;7.43;6.83;;;;;;;25.32;68.41;99178.63;4953535;29;20630;-70
2023/07/07 02:35:08;;;;;;;8.13;7.23;;;;;;;25.28;67.82;99188.47;4953768;29;20196;-70
2023/07/07 02:37:35;;;;;;;12.27;7.20;;;;;;;25.16;68.35;99190.81;4953520;29;20208;-70
2023/07/07 02:40:03;;;;;;;7.53;7.00;;;;;;;25.10;68.72;99190.09;4953810;29;20255;-70
2023/07/07 02:42:29;;;;;;;9.97;7.13;;;;;;;25.17;69.89;99193.25;4952748;29;20216;-71
2023/07/07 02:44:56;;;;;;;8.50;7.80;;;;;;;25.13;68.50;99192.25;4953698;29;20196;-71
2023/07/07 02:47:23;;;;;;;8.13;7.40;;;;;;;25.24;69.24;99193.69;4953780;29;20196;-71
2023/07/07 02:49:49;;;;;;;8.67;7.57;;;;;;;25.38;68.36;99191.81;4953864;29;20251;-70
2023/07/07 02:52:17;;;;;;;8.43;7.37;;;;;;;25.41;67.16;99198.56;4953753;29;20208;-71
2023/07/07 02:54:44;;;;;;;9.57;7.20;;;;;;;25.46;67.76;99198.47;4953332;29;20192;-71
2023/07/07 02:57:11;;;;;;;13.27;8.40;;;;;;;25.49;67.49;99206.03;4953163;29;20656;-71
2023/07/07 02:59:37;;;;;;;9.47;6.97;;;;;;;25.45;67.33;99202.31;4952626;29;20263;-71
2023/07/07 03:02:05;;;;;;;7.97;7.47;;;;;;;25.49;67.62;99200.59;4953207;29;20695;-71
2023/07/07 03:04:32;;;;;;;8.03;7.23;;;;;;;25.64;66.85;99203.84;4953249;29;20196;-71
2023/07/07 03:06:59;;;;;;;7.77;7.00;;;;;;;25.78;66.67;99210.13;4970151;28;20227;-71
2023/07/07 03:09:27;;;;;;;7.00;6.50;;;;;;;25.94;66.43;99202.47;4972532;28;20606;-71
2023/07/07 03:11:53;;;;;;;7.50;6.80;;;;;;;26.09;65.49;99200.25;4972561;28;20200;-71
2023/07/07 03:14:20;;;;;;;9.70;6.60;;;;;;;26.22;65.38;99198.63;4965295;28;20580;-70
2023/07/07 03:16:51;;;;;;;7.70;6.77;;;;;;;26.14;64.55;99199.34;4953166;29;20572;-71
2023/07/07 03:19:19;;;;;;;11.80;7.00;;;;;;;26.09;65.31;99204.91;4954621;28;20195;-70
2023/07/07 03:21:46;;;;;;;7.83;7.23;;;;;;;26.16;64.39;99194.38;4956555;29;20665;-71
2023/07/07 03:24:15;;;;;;;7.53;7.07;;;;;;;26.26;64.37;99194.19;4956473;29;20251;-71
2023/07/07 03:26:43;;;;;;;10.40;8.03;;;;;;;26.35;63.71;99200.53;4956694;29;20237;-70
2023/07/07 03:29:10;;;;;;;10.70;6.97;;;;;;;26.19;64.20;99205.50;4956353;29;20219;-69
2023/07/07 03:31:37;;;;;;;7.67;7.03;;;;;;;26.06;65.58;99194.63;4956188;29;20196;-70
2023/07/07 03:34:05;;;;;;;8.47;7.00;;;;;;;26.14;64.77;99207.53;4956262;29;20730;-71
2023/07/07 03:36:34;;;;;;;8.07;7.27;;;;;;;26.31;64.04;99207.69;4956648;29;20196;-70
2023/07/07 03:39:02;;;;;;;7.23;6.70;;;;;;;26.24;64.56;99201.84;4956199;29;20196;-70
2023/07/07 03:41:30;;;;;;;7.60;6.77;;;;;;;26.21;64.71;99202.47;4956608;29;20203;-70
2023/07/07 03:43:58;;;;;;;6.57;6.07;;;;;;;26.38;63.79;99213.53;4955002;29;20510;-70
2023/07/07 03:46:27;;;;;;;7.53;6.83;;;;;;;26.50;63.67;99211.09;4956147;29;20196;-70
2023/07/07 03:48:54;;;;;;;7.00;6.40;;;;;;;26.62;63.28;99205.97;4956365;29;20195;-70
2023/07/07 03:51:24;;;;;;;7.20;6.77;;;;;;;26.81;62.55;99217.47;4956080;29;20196;-71
2023/07/07 03:53:51;;;;;;;7.50;6.50;;;;;;;26.77;62.46;99213.75;4956185;29;20208;-71
2023/07/07 03:56:19;;;;;;;7.30;6.83;;;;;;;26.90;62.13;99212.94;4955225;29;20231;-71
2023/07/07 03:58:46;;;;;;;6.67;6.23;;;;;;;27.04;61.67;99213.66;4955795;29;20207;-71
2023/07/07 04:01:15;;;;;;;6.43;6.03;;;;;;;27.11;61.02;99214.03;4956227;29;20196;-70
2023/07/07 04:03:42;;;;;;;7.63;6.87;;;;;;;27.17;60.30;99220.97;4956203;29;20307;-70
2023/07/07 04:06:09;;;;;;;9.73;6.83;;;;;;;27.22;60.77;99223.59;4966071;28;20197;-70
2023/07/07 04:08:36;;;;;;;12.20;6.80;;;;;;;27.33;59.86;99227.69;4975275;28;20195;-69
2023/07/07 04:11:05;;;;;;;13.83;6.97;;;;;;;27.45;59.31;99234.19;4975523;28;20246;-69
2023/07/07 04:13:33;;;;;;;11.40;7.00;;;;;;;28.17;57.16;99232.78;4964795;28;20192;-69
2023/07/07 04:16:02;;;;;;;8.97;6.33;;;;;;;29.06;54.03;99227.63;4955967;29;20196;-70
2023/07/07 04:18:32;;;;;;;6.83;6.27;;;;;;;29.24;52.82;99221.03;4955371;29;20243;-70
2023/07/07 04:21:00;;;;;;;6.50;6.00;;;;;;;29.63;51.56;99226.25;4955703;29;20279;-70
2023/07/07 04:23:27;;;;;;;6.93;6.30;;;;;;;30.09;49.69;99220.75;4955568;29;20230;-71
2023/07/07 04:25:54;;;;;;;11.13;6.20;;;;;;;30.68;47.90;99236.06;4955924;29;20200;-71
2023/07/07 04:28:20;;;;;;;10.57;6.07;;;;;;;31.25;46.31;99237.09;4955379;29;20247;-70
2023/07/07 04:30:51;;;;;;;5.97;5.30;;;;;;;31.91;45.14;99230.41;4954133;28;20267;-71
2023/07/07 04:33:18;;;;;;;6.37;5.87;;;;;;;32.45;43.80;99248.31;4955344;29;20192;-71
2023/07/07 04:35:51;;;;;;;6.63;6.00;;;;;;;33.08;41.59;99236.47;4955209;29;20625;-69
2023/07/07 04:38:18;;;;;;;34.33;7.67;;;;;;;33.58;40.77;99246.16;4943425;29;20682;-70
2023/07/07 04:40:46;;;;;;;5.13;4.83;;;;;;;34.32;38.89;99237.84;4955264;29;20206;-69
2023/07/07 04:43:12;;;;;;;7.30;6.10;;;;;;;34.45;37.93;99247.66;4955073;29;20224;-70
2023/07/07 04:45:39;;;;;;;9.40;5.73;;;;;;;34.44;37.79;99246.03;4954411;29;20196;-69
2023/07/07 04:48:06;;;;;;;6.20;5.65;;;;;;;34.44;37.63;99240.50;4954987;29;20200;-69
2023/07/07 04:50:33;;;;;;;6.15;5.55;;;;;;;34.24;38.79;99247.09;4955030;29;20196;-69
2023/07/07 04:53:01;;;;;;;18.25;5.65;;;;;;;34.48;37.54;99246.91;4955136;29;20204;-69
2023/07/07 04:55:28;;;;;;;5.90;4.65;;;;;;;34.04;38.30;99248.19;4954619;29;20196;-70
2023/07/07 04:57:55;;;;;;;6.15;5.55;;;;;;;34.18;37.65;99248.53;4954717;29;20200;-69
2023/07/07 05:00:21;;;;;;;7.28;5.10;;;;;;;34.34;37.69;99247.41;4954793;29;20262;-65
2023/07/07 05:02:48;;;;;;;15.82;5.40;;;;;;;34.43;37.70;99250.75;4953510;29;20948;-65
2023/07/07 05:05:15;;;;;;;7.45;5.07;;;;;;;35.06;37.42;99245.84;4957904;28;20246;-66
2023/07/07 05:07:42;;;;;;;14.20;4.85;;;;;;;34.89;36.62;99246.28;4974292;28;20270;-65
2023/07/07 05:10:10;;;;;;;6.90;5.03;;;;;;;35.35;35.27;99242.56;4974145;28;20281;-64
2023/07/07 05:12:37;;;;;;;15.60;5.75;;;;;;;34.99;36.45;99240.19;4973827;28;20200;-64
2023/07/07 05:15:04;;;;;;;10.00;5.22;;;;;;;35.13;36.76;99246.00;4961965;28;20200;-66
2023/07/07 05:17:31;;;;;;;8.50;4.95;;;;;;;35.73;34.69;99253.53;4954808;29;20196;-66
2023/07/07 05:19:58;;;;;;;6.13;4.82;;;;;;;35.76;35.19;99247.28;4954434;29;20271;-68
2023/07/07 05:22:24;;;;;;;6.40;5.00;;;;;;;35.88;35.03;99233.28;4953468;29;20199;-68
2023/07/07 05:24:51;;;;;;;24.08;6.25;;;;;;;35.78;35.22;99247.72;4953806;29;20632;-67
2023/07/07 05:27:19;;;;;;;6.15;5.00;;;;;;;35.81;34.73;99247.00;4953701;29;20208;-67
2023/07/07 05:29:46;;;;;;;6.57;5.30;;;;;;;35.86;35.18;99249.44;4953072;29;20227;-67
2023/07/07 05:32:13;;;;;;;6.63;4.63;;;;;;;36.10;35.08;99257.38;4953954;29;20340;-67
2023/07/07 05:34:39;;;;;;;8.18;5.18;;;;;;;36.28;34.50;99252.94;4953686;29;20196;-66
2023/07/07 05:37:06;;;;;;;5.63;5.13;;;;;;;36.55;33.75;99257.31;4953530;29;20196;-66
2023/07/07 05:39:33;;;;;;;8.63;4.90;;;;;;;36.39;33.46;99256.69;4953903;29;20206;-65
2023/07/07 05:41:59;;;;;;;6.97;5.32;;;;;;;35.79;35.13;99258.41;4953222;28;20269;-67
2023/07/07 05:44:27;;;;;;;7.05;5.38;;;;;;;35.67;35.28;99263.28;4952867;29;20228;-67
2023/07/07 05:46:54;;;;;;;5.13;4.72;;;;;;;36.16;34.67;99273.28;4951583;29;20258;-68
2023/07/07 05:49:21;;;;;;;6.80;5.00;;;;;;;36.23;34.69;99278.97;4952866;29;20561;-67
2023/07/07 05:51:48;;;;;;;13.43;4.80;;;;;;;35.80;35.45;99273.81;4953116;29;20203;-70
2023/07/07 05:54:15;;;;;;;5.95;5.40;;;;;;;36.08;34.75;99276.28;4951938;29;20195;-66
2023/07/07 05:56:41;;;;;;;6.75;5.07;;;;;;;36.16;34.95;99267.75;4951977;29;20222;-67
2023/07/07 05:59:08;;;;;;;6.95;4.95;;;;;;;36.37;34.18;99272.84;4951705;29;20207;-66
2023/07/07 06:01:38;;;;;;;16.42;5.60;;;;;;;36.25;35.59;99273.06;4952068;29;20199;-67
2023/07/07 06:04:05;;;;;;;7.03;6.00;;;;;;;35.96;34.72;99265.41;4952894;29;20224;-67
2023/07/07 06:06:32;;;;;;;12.68;6.25;;;;;;;36.10;35.08;99271.97;4966461;28;20199;-65
2023/07/07 06:08:58;;;;;;;7.35;4.68;;;;;;;36.60;33.87;99273.59;4972854;28;20223;-70
2023/07/07 06:11:25;;;;;;;6.80;5.18;;;;;;;36.23;35.02;99265.13;4971364;28;20726;-72
2023/07/07 06:13:52;;;;;;;12.52;6.18;;;;;;;35.95;35.72;99272.91;4972942;28;20211;-70
2023/07/07 06:16:19;;;;;;;8.30;6.13;;;;;;;35.95;35.96;99270.16;4971712;28;20191;-71
2023/07/07 06:18:47;;;;;;;10.18;5.72;;;;;;;35.48;36.39;99264.09;4960714;28;20198;-72
2023/07/07 06:21:14;;;;;;;7.75;6.13;;;;;;;35.26;37.33;99266.78;4951696;29;20247;-72
2023/07/07 06:23:41;;;;;;;10.93;5.50;;;;;;;34.13;39.25;99266.13;4954448;28;20641;-72
2023/07/07 06:26:08;;;;;;;8.60;5.60;;;;;;;34.41;39.08;99264.09;4958078;28;20196;-72
2023/07/07 06:28:34;;;;;;;14.48;6.70;;;;;;;34.67;38.66;99266.28;4959925;28;20258;-72
2023/07/07 06:31:01;;;;;;;11.18;5.90;;;;;;;34.74;38.49;99267.22;4956057;28;20275;-72
2023/07/07 06:33:28;;;;;;;5.80;5.25;;;;;;;34.96;37.93;99265.75;4956891;28;20260;-71
2023/07/07 06:35:56;;;;;;;9.98;5.78;;;;;;;34.82;38.05;99268.22;4970469;28;20261;-72
2023/07/07 06:38:23;;;;;;;14.15;5.90;;;;;;;34.84;38.24;99272.22;4970374;28;20282;-70
2023/07/07 06:40:50;;;;;;;7.20;5.20;;;;;;;34.91;37.66;99261.31;4958763;28;20301;-70
2023/07/07 06:43:18;;;;;;;12.15;5.50;;;;;;;35.06;37.87;99267.94;4950756;29;20984;-70
2023/07/07 06:45:46;;;;;;;6.43;5.90;;;;;;;35.29;37.18;99268.84;4950790;29;20200;-69
2023/07/07 06:48:12;;;;;;;13.75;6.72;;;;;;;35.58;36.32;99262.72;4951127;29;20200;-70
2023/07/07 06:50:41;;;;;;;6.55;6.05;;;;;;;35.30;36.58;99273.22;4951382;29;20224;-70
2023/07/07 06:53:10;;;;;;;8.05;5.70;;;;;;;35.51;36.94;99268.09;4950379;28;20235;-70
2023/07/07 06:55:37;;;;;;;7.00;6.18;;;;;;;35.43;36.82;99272.69;4954490;29;20204;-69
2023/07/07 06:58:04;;;;;;;5.82;5.53;;;;;;;35.56;36.43;99271.38;4956260;29;20196;-72
2023/07/07 07:00:32;;;;;;;6.15;5.65;;;;;;;35.33;36.59;99266.97;4956671;29;20200;-73
2023/07/07 07:02:59;;;;;;;8.07;6.15;;;;;;;35.61;36.34;99267.50;4956722;29;20200;-73
2023/07/07 07:05:25;;;;;;;6.32;5.68;;;;;;;35.60;36.11;99265.94;4960272;28;20195;-71
2023/07/07 07:07:52;;;;;;;5.75;5.35;;;;;;;35.45;36.96;99264.03;4976026;28;20203;-70
2023/07/07 07:10:20;;;;;;;7.53;5.90;;;;;;;35.81;36.44;99266.34;4975765;28;20721;-68
2023/07/07 07:12:48;;;;;;;6.72;6.22;;;;;;;35.38;37.04;99270.25;4975686;28;20203;-66
2023/07/07 07:15:15;;;;;;;7.60;6.60;;;;;;;35.43;37.32;99255.34;4971613;28;20407;-68
2023/07/07 07:17:41;;;;;;;13.82;6.13;;;;;;;35.53;37.64;99265.78;4956061;29;20223;-65
2023/07/07 07:20:11;;;;;;;6.78;6.07;;;;;;;35.50;37.39;99263.75;4955164;29;20251;-68
2023/07/07 07:22:38;;;;;;;8.80;6.47;;;;;;;35.31;36.95;99270.09;4954126;29;20241;-68
2023/07/07 07:25:05;;;;;;;6.90;5.82;;;;;;;35.05;37.16;99261.63;4953944;29;20656;-68
2023/07/07 07:27:33;;;;;;;7.35;5.90;;;;;;;35.34;37.09;99255.56;4954312;29;20200;-68
2023/07/07 07:30:00;;;;;;;6.72;6.13;;;;;;;35.20;36.98;99258.00;4953979;29;20869;-69
2023/07/07 07:32:27;;;;;;;6.30;5.90;;;;;;;35.31;36.97;99259.03;4955020;29;20660;-69
2023/07/07 07:34:53;;;;;;;6.95;6.38;;;;;;;35.32;36.99;99260.63;4955268;29;20707;-69
2023/07/07 07:37:20;;;;;;;6.68;6.15;;;;;;;35.12;37.20;99256.28;4956162;29;20204;-70
2023/07/07 07:39:47;;;;;;;9.93;6.60;;;;;;;35.37;37.80;99254.03;4955479;29;20204;-72
2023/07/07 07:42:14;;;;;;;7.68;6.47;;;;;;;35.67;36.48;99260.50;4956043;29;20668;-71
2023/07/07 07:44:42;;;;;;;9.80;6.30;;;;;;;35.88;36.28;99255.41;4938254;29;20278;-70
2023/07/07 07:47:09;;;;;;;6.43;5.82;;;;;;;35.77;36.02;99266.25;4955409;29;20196;-72
2023/07/07 07:49:36;;;;;;;6.30;5.90;;;;;;;35.86;35.11;99268.78;4955604;29;20204;-71
2023/07/07 07:52:03;;;;;;;6.75;6.05;;;;;;;36.07;34.23;99269.97;4955168;29;20251;-69
2023/07/07 07:54:30;;;;;;;7.95;5.65;;;;;;;36.16;33.94;99266.94;4954489;29;20196;-68
2023/07/07 07:56:56;;;;;;;9.02;5.30;;;;;;;36.06;33.77;99268.38;4954422;29;20200;-70
2023/07/07 07:59:23;;;;;;;6.50;6.10;;;;;;;35.51;35.21;99254.28;4954084;29;20267;-71
2023/07/07 08:01:52;;;;;;;6.70;6.03;;;;;;;35.16;34.45;99256.31;4938452;29;20243;-71
2023/07/07 08:04:19;;;;;;;8.30;5.40;;;;;;;35.21;34.71;99269.84;4954656;29;20645;-68
2023/07/07 08:06:46;;;;;;;36.08;7.93;;;;;;;35.38;34.06;99241.78;4952033;28;20199;-68
2023/07/07 08:09:13;;;;;;;9.02;5.40;;;;;;;35.17;35.29;99258.72;4974243;28;20278;-70
2023/07/07 08:12:10;;;;;;;7.97;5.63;;;;;;;35.37;34.45;99267.84;4975003;28;20195;-67
2023/07/07 08:14:37;;;;;;;6.03;5.53;;;;;;;35.20;34.19;99263.53;4895154;29;20206;-68
2023/07/07 08:17:08;;;;;;;6.30;5.78;;;;;;;35.71;34.46;99264.94;4932005;29;20196;-71
2023/07/07 08:19:36;;;;;;;6.70;6.20;;;;;;;35.87;34.06;99267.63;4954931;29;20228;-67
2023/07/07 08:22:05;;;;;;;7.22;6.53;;;;;;;36.22;32.84;99268.25;4955559;29;20215;-70
2023/07/07 08:24:36;;;;;;;8.90;5.75;;;;;;;36.09;33.93;99269.59;4954572;29;20277;-70
2023/07/07 08:27:03;;;;;;;7.28;5.88;;;;;;;35.97;33.84;99276.09;4954418;29;20196;-71
2023/07/07 08:29:30;;;;;;;7.13;6.25;;;;;;;36.01;33.86;99270.66;4937167;29;20292;-69
2023/07/07 08:31:56;;;;;;;12.57;6.60;;;;;;;35.81;34.28;99260.81;4954191;28;20193;-70
2023/07/07 08:34:25;;;;;;;6.97;6.32;;;;;;;35.77;33.42;99248.88;4958790;28;20743;-70
2023/07/07 08:36:54;;;;;;;7.20;6.53;;;;;;;35.57;34.38;99266.66;4962921;28;20259;-71
2023/07/07 08:39:22;;;;;;;16.25;7.60;;;;;;;35.34;34.75;99263.03;4963962;28;20199;-68
2023/07/07 08:41:53;;;;;;;7.13;6.55;;;;;;;35.24;34.54;99258.84;4964159;28;20204;-67
2023/07/07 08:44:23;;;;;;;6.43;6.00;;;;;;;34.92;34.72;99253.84;4957118;28;20281;-68
2023/07/07 08:47:07;;;;;;;8.07;6.07;;;;;;;34.82;35.44;99262.72;4953539;28;20204;-68
2023/07/07 08:49:44;;;;;;;7.13;6.47;;;;;;;35.06;35.63;99252.19;4938546;28;20282;-72
2023/07/07 08:52:23;;;;;;;9.07;6.00;;;;;;;35.11;34.38;99248.34;4958681;28;20196;-73
2023/07/07 08:54:55;;;;;;;10.68;6.32;;;;;;;35.20;34.00;99230.38;4962205;28;20195;-71
2023/07/07 08:57:28;;;;;;;6.40;5.82;;;;;;;35.25;33.22;99248.63;4965908;28;20227;-69
2023/07/07 09:00:02;;;;;;;6.28;5.45;;;;;;;35.47;33.26;99245.94;4953614;29;20636;-70
2023/07/07 09:02:57;;;;;;;6.10;5.80;;;;;;;35.56;33.69;99245.72;4959614;28;20636;-70
2023/07/07 09:05:40;;;;;;;14.63;5.97;;;;;;;35.56;32.98;99245.72;4950969;28;20219;-70
2023/07/07 09:08:13;;;;;;;9.00;8.23;;;;;;;35.63;32.79;99232.00;4973462;28;20254;-69
2023/07/07 09:10:48;;;;;;;11.00;6.22;;;;;;;35.92;33.09;99239.66;4969080;28;20235;-68
2023/07/07 09:13:23;;;;;;;43.90;7.43;;;;;;;36.20;33.17;99232.63;4956054;28;20203;-70
2023/07/07 09:16:02;;;;;;;6.05;5.38;;;;;;;36.12;32.62;99232.88;4963585;28;20206;-69
2023/07/07 09:18:34;;;;;;;7.35;5.38;;;;;;;36.37;32.35;99234.09;4953007;28;20675;-70
2023/07/07 09:21:06;;;;;;;13.57;5.82;;;;;;;36.66;31.94;99231.38;4953334;29;20199;-69
2023/07/07 09:23:37;;;;;;;5.85;5.35;;;;;;;36.37;31.50;99228.56;4953286;29;20664;-70
2023/07/07 09:26:09;;;;;;;6.55;5.93;;;;;;;36.40;31.42;99227.81;4955033;28;20311;-74
2023/07/07 09:28:46;;;;;;;21.48;6.22;;;;;;;36.46;32.33;99226.34;4952009;29;20612;-68
2023/07/07 09:31:29;;;;;;;6.25;5.45;;;;;;;36.82;30.63;99217.34;4929843;29;20276;-67
2023/07/07 09:33:59;;;;;;;11.63;6.03;;;;;;;36.86;30.99;99229.28;4953281;29;20293;-70
2023/07/07 09:36:30;;;;;;;6.95;5.90;;;;;;;36.76;31.32;99210.56;4953065;29;20192;-68
2023/07/07 09:39:08;;;;;;;8.88;6.03;;;;;;;36.86;31.53;99213.47;4953673;29;20192;-70
2023/07/07 09:41:48;;;;;;;7.40;5.75;;;;;;;36.87;31.34;99211.50;4953662;29;20204;-69
2023/07/07 09:44:28;;;;;;;11.38;6.38;;;;;;;36.52;31.29;99209.03;4953534;29;20238;-69
2023/07/07 09:47:05;;;;;;;7.65;5.40;;;;;;;36.10;32.34;99218.63;4953462;29;20247;-70
2023/07/07 09:49:41;;;;;;;10.35;5.95;;;;;;;35.92;33.14;99225.81;4952674;29;20204;-69
2023/07/07 09:52:25;;;;;;;6.30;5.80;;;;;;;36.37;32.18;99215.53;4952786;29;20206;-72
2023/07/07 09:54:53;;;;;;;7.53;5.72;;;;;;;35.66;32.86;99214.69;4952688;29;20203;-68
2023/07/07 09:57:27;;;;;;;12.65;5.97;;;;;;;35.61;32.94;99212.22;4953106;29;20210;-69
2023/07/07 09:59:57;;;;;;;12.88;5.75;;;;;;;35.82;32.17;99201.56;4952468;29;20748;-68
2023/07/07 10:02:26;;;;;;;10.13;5.20;;;;;;;36.00;31.41;99208.19;4952806;29;20286;-69
2023/07/07 10:04:58;;;;;;;5.90;5.22;;;;;;;36.09;31.48;99208.75;4936706;28;20279;-70
2023/07/07 10:07:32;;;;;;;6.75;5.68;;;;;;;35.81;31.42;99199.97;4972730;28;20211;-69
2023/07/07 10:09:59;;;;;;;10.15;5.93;;;;;;;35.85;32.25;99193.31;4972368;28;20231;-72
2023/07/07 10:12:27;;;;;;;12.25;6.28;;;;;;;36.02;31.78;99205.84;4954821;28;20746;-71
2023/07/07 10:14:56;;;;;;;7.93;5.90;;;;;;;35.91;32.03;99202.13;4953201;29;20274;-69
2023/07/07 10:17:32;;;;;;;7.97;5.88;;;;;;;35.61;32.08;99198.41;4953105;29;20258;-69
2023/07/07 10:20:01;;;;;;;12.68;6.35;;;;;;;35.79;32.22;99169.13;4953170;29;20195;-71
2023/07/07 10:22:29;;;;;;;7.95;5.78;;;;;;;35.65;32.46;99185.44;4952318;29;20580;-69
2023/07/07 10:24:56;;;;;;;10.32;5.65;;;;;;;36.28;31.28;99192.06;4952620;29;20220;-68
2023/07/07 10:27:27;;;;;;;22.75;6.35;;;;;;;36.06;31.65;99190.94;4952569;29;20196;-67
2023/07/07 10:29:59;;;;;;;12.02;5.80;;;;;;;36.00;31.40;99188.81;4955413;28;20200;-69
2023/07/07 10:32:26;;;;;;;5.68;5.28;;;;;;;36.62;30.62;99190.97;4955776;29;20188;-69
2023/07/07 10:34:54;;;;;;;7.10;4.80;;;;;;;36.74;30.69;99187.97;4956637;29;20630;-69
2023/07/07 10:37:23;;;;;;;7.53;5.35;;;;;;;37.08;29.73;99184.06;4955921;29;20199;-71
2023/07/07 10:39:53;;;;;;;11.27;5.70;;;;;;;37.24;29.95;99184.69;4956935;29;20263;-69
2023/07/07 10:42:23;;;;;;;13.45;5.85;;;;;;;36.73;30.34;99186.41;4956157;29;20204;-72
2023/07/07 10:44:50;;;;;;;5.72;5.28;;;;;;;36.66;30.40;99176.00;4957009;29;20231;-70
2023/07/07 10:47:20;;;;;;;23.25;5.32;;;;;;;36.87;30.37;99175.50;4956660;29;20192;-68
2023/07/07 10:49:47;;;;;;;6.43;5.38;;;;;;;36.89;29.86;99173.16;4956129;29;20734;-71
2023/07/07 10:52:26;;;;;;;9.13;5.45;;;;;;;36.61;29.92;99178.28;4955528;29;20224;-70
2023/07/07 10:55:03;;;;;;;6.43;5.28;;;;;;;36.82;29.29;99173.06;4957123;29;20246;-72
2023/07/07 10:57:39;;;;;;;6.60;5.80;;;;;;;36.40;29.71;99180.78;4950608;28;20196;-72
2023/07/07 11:00:28;;;;;;;7.47;5.20;;;;;;;36.46;30.31;99171.00;4956021;29;20250;-71
2023/07/07 11:03:26;;;;;;;5.93;5.43;;;;;;;36.20;30.25;99165.41;4947999;29;20272;-70
2023/07/07 11:05:58;;;;;;;8.23;5.22;;;;;;;35.96;31.09;99140.94;4963065;28;20219;-71
2023/07/07 11:08:35;;;;;;;9.30;5.57;;;;;;;36.11;30.89;99143.56;4953901;28;20192;-73
2023/07/07 11:11:18;;;;;;;8.20;5.95;;;;;;;36.65;30.48;99137.59;4955538;29;20631;-72
2023/07/07 11:13:59;;;;;;;6.40;5.47;;;;;;;36.97;30.77;99136.03;4947460;29;20199;-72
2023/07/07 11:16:39;;;;;;;7.50;5.95;;;;;;;37.04;29.94;99127.81;4955792;29;20216;-73
2023/07/07 11:19:22;;;;;;;16.10;6.50;;;;;;;36.85;30.62;99136.31;4956788;29;20184;-72
2023/07/07 11:21:59;;;;;;;6.15;5.57;;;;;;;37.22;30.41;99131.59;4955985;29;20652;-72
2023/07/07 11:24:31;;;;;;;5.82;5.13;;;;;;;37.43;29.49;99136.56;4955857;29;20187;-73
2023/07/07 11:27:24;;;;;;;5.82;5.10;;;;;;;37.57;28.55;99137.47;4955750;29;20187;-73
2023/07/07 11:29:58;;;;;;;5.18;4.72;;;;;;;37.60;27.86;99139.50;4961229;28;20224;-72
2023/07/07 11:32:34;;;;;;;5.03;4.72;;;;;;;37.67;28.21;99136.00;4954407;28;20259;-73
2023/07/07 11:35:20;;;;;;;7.25;5.10;;;;;;;38.00;28.17;99128.31;4955715;29;20263;-72
2023/07/07 11:38:00;;;;;;;7.60;5.18;;;;;;;37.69;28.33;99130.88;4955230;29;20649;-73
2023/07/07 11:40:50;;;;;;;7.45;4.82;;;;;;;37.34;28.52;99123.00;4958186;28;20196;-72
2023/07/07 11:43:33;;;;;;;10.20;5.30;;;;;;;37.38;28.51;99115.53;4954646;28;20208;-72
2023/07/07 11:46:14;;;;;;;6.47;4.28;;;;;;;37.74;27.30;99117.44;4954809;29;20295;-72